Half Day, Illinois
Current Conditions -  °F | °C
As of 11:52 PM on Monday 26 Jan 2015 (Local Time) from KPWK Reporting Station
Light Snow Light Snow  
Wind Chill: 27°   Ceiling: 1300
Heat Index: 27°   Visibility: 3mi
Dew Point: 24°   Wind: 0mph
Humidity: 89%   Direction: NA
Pressure: 29.92"   Gusts: NA
Location:  42.1941°N, 87.9317°W
Report Text: KPWK 270552Z AUTO 00000KT 3SM -SN BR OVC013 M03/M04 A2992 RMK AO2 SNB09 SLP141 P0000 60000 T10281044 11028 21033 410281094 53001
Loading
Personal Weather Stations






























Interactive Weather Map New forecast layout! Learn more

10-Day Weather Forecast

Advertisements
Track Severe Weather on mobile